Strona główna
METAR-TAF:

METAR-TAF

Lotnisko :

Poznań, Polska

Port lotniczy Poznań-Ławica

Szerokość geograficzna: 52-25N, Długość geograficzna: 016-50E, wysokość: 86 m

Aktualna obserwacja pogody

Raport powstał 30 minut temu, godzina 06:00 UTC
Wiatr 11 kt od zachodnio-południowy zachód
Temperatura 4°C
Wilgotność 87%
Ciśnienie 1005 hPa
Widzialność 10 km lub więcej
Zachmurzenie całkowite na wysokości 1400 ft

METAR: EPPO 190600Z 25011KT 9999 OVC014 04/02 Q1005

czas: 07:30 (06:30 UTC)

Prognoza

Raport powstał 1 godzina i 0 minut temu, godzina 05:30 UTC
Prognoza ważna od 19 godzina 06 UTC do 20 godzina 06 UTC
Wiatr 12 kt od zachodnio-południowy zachód
Widzialność 10 km lub więcej
Zachmurzenie całkowite na wysokości 1600 ft
Przejściowo
od 19 godzina 06 UTC do 20 godzina 04 UTC
Wiatr 16 kt od zachodnio-południowy zachód w porywach dochodzący do 26 kt
Przerywane chmury na wysokości 1000 ft, Cumulonimbus.
słaby przelotny opad deszczu

TAF: EPPO 190530Z 1906/2006 25012KT 9999 OVC016 TEMPO 1906/2004 25016G26KT -SHRA BKN010CB

Obserwacja i prognoza pogody dla ponad 4000 lotnisk (raport METAR i TAF).

Dostępne stacje oznaczono żółtymi i czerwonymi punktami na mapie.

Najedź kursorem aby zobaczyć nazwę stacji.

Kliknij aby zobaczyć obserwacje i prognozy pogody.

Aby zmienić mapę: kliknij na zielony przycisk z czarnym krzyżykiem, aby powiększyć; na zielony przycisk z myślnikiem, aby pomniejszyć; na zielone strzałki, aby przejść do map sąsiednich.


METAR-TAF: